Terminal Aerodrome Forecast
Issued by NWS

Current Version | Previous Version | Text Only | Print | Product List | Glossary Off
Versions: 1 2 3 4 5 6 7 8 9 10 11 12 13 14 15 16

000
FTUS41 KILN 271700
TAFLCK
TAF
KLCK 271739Z 2718/2818 22012G20KT P6SM SCT040
      TEMPO 2721/2723 3SM TSRA BKN030CB
     FM280100 22009KT P6SM VCTS BKN050CB
     FM280300 25006KT P6SM SCT050
     FM280900 33003KT P6SM SCT250
     FM281400 06005KT P6SM FEW035=

USA.gov is the U.S. government's official web portal to all federal, state and local government web resources and services.